createdAt,value
2022-12-09T00:01:17.714Z,96725.28
2022-12-09T00:03:47.120Z,96722.31
2022-12-09T00:06:24.002Z,96713.81
2022-12-09T00:08:51.129Z,96702.09
2022-12-09T00:11:19.249Z,96704.63
2022-12-09T00:13:55.901Z,96717.63
2022-12-09T00:16:24.066Z,96713.09
2022-12-09T00:18:51.913Z,96719.41
2022-12-09T00:21:21.072Z,96710.53
2022-12-09T00:23:48.673Z,96719.88
2022-12-09T00:26:16.377Z,96711.66
2022-12-09T00:28:45.598Z,96700.00
2022-12-09T00:31:21.740Z,96692.56
2022-12-09T00:33:50.330Z,96690.78
2022-12-09T00:36:22.637Z,96694.13
2022-12-09T00:38:50.154Z,96689.69
2022-12-09T00:41:19.319Z,96679.47
2022-12-09T00:43:45.914Z,96678.47
2022-12-09T00:46:14.049Z,96672.13
2022-12-09T00:48:47.583Z,96678.34
2022-12-09T00:51:18.136Z,96671.25
2022-12-09T00:53:45.348Z,96667.56
2022-12-09T00:56:12.350Z,96667.66
2022-12-09T00:58:38.897Z,96661.66
2022-12-09T01:01:06.146Z,96654.09
2022-12-09T01:03:45.019Z,96662.53
2022-12-09T01:06:22.761Z,96660.31
2022-12-09T01:08:56.715Z,96667.94
2022-12-09T01:11:26.590Z,96652.50
2022-12-09T01:13:54.161Z,96651.94
2022-12-09T01:16:29.190Z,96647.81
2022-12-09T01:18:59.743Z,96649.34
2022-12-09T01:21:32.215Z,96641.03
2022-12-09T01:23:59.090Z,96634.91
2022-12-09T01:26:25.636Z,96636.03
2022-12-09T01:28:53.563Z,96640.94
2022-12-09T01:31:24.108Z,96631.03
2022-12-09T01:33:51.365Z,96627.63
2022-12-09T01:36:24.557Z,96637.59
2022-12-09T01:38:51.499Z,96635.38
2022-12-09T01:41:19.323Z,96631.56
2022-12-09T01:44:07.549Z,96635.78
2022-12-09T01:46:35.943Z,96633.13
2022-12-09T01:49:02.846Z,96637.78
2022-12-09T01:51:31.314Z,96627.22
2022-12-09T01:53:58.191Z,96615.88
2022-12-09T01:56:29.301Z,96617.78
2022-12-09T01:59:02.447Z,96617.78
2022-12-09T02:01:29.422Z,96616.13
2022-12-09T02:03:56.402Z,96605.91
2022-12-09T02:06:25.223Z,96607.13
2022-12-09T02:08:56.085Z,96604.47
2022-12-09T02:11:27.827Z,96601.78
2022-12-09T02:14:00.314Z,96591.56
2022-12-09T02:16:32.487Z,96603.31
2022-12-09T02:19:08.280Z,96590.44
2022-12-09T02:21:39.161Z,96598.78
2022-12-09T02:24:16.031Z,96599.53
2022-12-09T02:26:52.443Z,96601.78
2022-12-09T02:29:24.883Z,96587.34
2022-12-09T02:32:41.947Z,96588.13
2022-12-09T02:35:23.886Z,96590.44
2022-12-09T02:38:02.816Z,96582.00
2022-12-09T02:40:54.325Z,96574.47
2022-12-09T02:43:28.434Z,96577.47
2022-12-09T02:45:56.739Z,96572.03
2022-12-09T02:48:31.393Z,96578.81
2022-12-09T02:50:58.775Z,96569.88
2022-12-09T02:53:31.115Z,96563.28
2022-12-09T02:55:58.444Z,96561.53
2022-12-09T02:58:25.273Z,96555.84
2022-12-09T03:00:56.518Z,96554.81
2022-12-09T03:03:28.394Z,96556.13
2022-12-09T03:06:07.376Z,96550.63
2022-12-09T03:08:52.343Z,96551.53
2022-12-09T03:11:22.101Z,96548.69
2022-12-09T03:14:01.740Z,96536.97
2022-12-09T03:17:05.460Z,96531.47
2022-12-09T03:19:39.373Z,96528.25
2022-12-09T03:22:12.273Z,96522.81
2022-12-09T03:25:11.013Z,96516.66
2022-12-09T03:27:44.380Z,96518.44
2022-12-09T03:30:12.271Z,96521.75
2022-12-09T03:32:42.018Z,96512.13
2022-12-09T03:35:13.313Z,96514.72
2022-12-09T03:37:42.091Z,96500.97
2022-12-09T03:40:15.747Z,96498.63
2022-12-09T03:42:57.161Z,96498.63
2022-12-09T03:45:31.822Z,96507.38
2022-12-09T03:47:58.694Z,96489.91
2022-12-09T03:50:29.397Z,96494.00
2022-12-09T03:53:07.086Z,96493.88
2022-12-09T03:55:42.514Z,96496.13
2022-12-09T03:58:14.398Z,96489.59
2022-12-09T04:00:47.182Z,96485.72
2022-12-09T04:03:14.763Z,96479.97
2022-12-09T04:05:47.330Z,96483.38
2022-12-09T04:08:13.907Z,96472.00
2022-12-09T04:10:40.945Z,96464.03
2022-12-09T04:13:09.250Z,96463.56
2022-12-09T04:15:36.057Z,96461.69
2022-12-09T04:18:03.232Z,96468.53
2022-12-09T04:20:31.613Z,96471.53
2022-12-09T04:22:58.541Z,96458.59
2022-12-09T04:25:25.567Z,96449.84
2022-12-09T04:28:01.156Z,96457.81
2022-12-09T04:30:29.842Z,96458.94
2022-12-09T04:32:56.911Z,96451.72
2022-12-09T04:35:23.778Z,96448.97
2022-12-09T04:37:50.442Z,96445.56
2022-12-09T04:40:23.210Z,96443.53
2022-12-09T04:42:51.229Z,96450.00
2022-12-09T04:45:21.407Z,96447.75
2022-12-09T04:47:48.109Z,96439.03
2022-12-09T04:50:17.795Z,96448.84
2022-12-09T04:52:44.595Z,96447.75
2022-12-09T04:55:13.696Z,96449.19
2022-12-09T04:57:47.477Z,96445.44
2022-12-09T05:00:15.231Z,96453.06
2022-12-09T05:02:42.219Z,96445.88
2022-12-09T05:05:11.461Z,96444.34
2022-12-09T05:07:40.046Z,96439.44
2022-12-09T05:10:08.077Z,96435.69
2022-12-09T05:12:37.184Z,96438.34
2022-12-09T05:15:04.051Z,96446.31
2022-12-09T05:17:30.778Z,96441.75
2022-12-09T05:20:02.106Z,96436.44
2022-12-09T05:22:28.793Z,96436.78
2022-12-09T05:24:55.463Z,96434.13
2022-12-09T05:27:24.565Z,96428.81
2022-12-09T05:29:54.399Z,96431.47
2022-12-09T05:32:21.667Z,96431.81
2022-12-09T05:34:50.667Z,96436.38
2022-12-09T05:37:17.315Z,96433.72
2022-12-09T05:39:44.285Z,96434.81
2022-12-09T05:42:11.136Z,96429.50
2022-12-09T05:44:37.922Z,96429.50
2022-12-09T05:47:05.296Z,96429.50
2022-12-09T05:49:32.232Z,96430.59
2022-12-09T05:52:00.932Z,96426.41
2022-12-09T05:54:27.970Z,96427.50
2022-12-09T05:56:57.545Z,96421.09
2022-12-09T05:59:24.839Z,96419.88
2022-12-09T06:01:51.706Z,96425.97
2022-12-09T06:04:23.654Z,96428.63
2022-12-09T06:06:50.771Z,96423.31
2022-12-09T06:09:17.476Z,96427.06
2022-12-09T06:11:44.393Z,96421.75
2022-12-09T06:14:12.104Z,96418.31
2022-12-09T06:16:39.009Z,96422.53
2022-12-09T06:19:06.799Z,96419.09
2022-12-09T06:21:33.558Z,96424.41
2022-12-09T06:24:00.631Z,96418.66
2022-12-09T06:26:31.973Z,96418.66
2022-12-09T06:28:59.790Z,96416.00
2022-12-09T06:31:28.259Z,96417.13
2022-12-09T06:33:58.798Z,96413.34
2022-12-09T06:36:28.404Z,96411.78
2022-12-09T06:38:57.001Z,96416.34
2022-12-09T06:41:24.591Z,96416.34
2022-12-09T06:43:51.482Z,96411.78
2022-12-09T06:46:20.737Z,96414.44
2022-12-09T06:48:54.893Z,96418.66
2022-12-09T06:51:23.597Z,96421.66
2022-12-09T06:53:52.833Z,96414.91
2022-12-09T06:56:20.315Z,96409.59
2022-12-09T06:58:49.862Z,96406.94
2022-12-09T07:01:22.111Z,96414.13
2022-12-09T07:03:53.702Z,96410.69
2022-12-09T07:06:25.454Z,96414.91
2022-12-09T07:08:53.273Z,96410.03
2022-12-09T07:11:20.157Z,96410.03
2022-12-09T07:13:49.150Z,96415.78
2022-12-09T07:16:15.816Z,96406.25
2022-12-09T07:18:42.988Z,96404.03
2022-12-09T07:21:12.703Z,96401.38
2022-12-09T07:23:40.157Z,96398.38
2022-12-09T07:26:07.557Z,96402.59
2022-12-09T07:28:42.464Z,96396.16
2022-12-09T07:31:23.741Z,96393.19
2022-12-09T07:33:52.635Z,96388.28
2022-12-09T07:36:21.431Z,96392.50
2022-12-09T07:38:49.682Z,96396.72
2022-12-09T07:41:21.075Z,96398.69
2022-12-09T07:43:48.992Z,96394.25
2022-12-09T07:46:17.442Z,96386.28
2022-12-09T07:48:44.485Z,96386.69
2022-12-09T07:51:12.058Z,96386.69
2022-12-09T07:53:39.306Z,96393.22
2022-12-09T07:56:14.932Z,96402.41
2022-12-09T07:58:42.352Z,96396.00
2022-12-09T08:01:12.089Z,96399.84
2022-12-09T08:03:42.601Z,96400.28
2022-12-09T08:06:15.113Z,96402.25
2022-12-09T08:08:48.390Z,96396.59
2022-12-09T08:11:17.268Z,96400.81
2022-12-09T08:13:44.407Z,96408.38
2022-12-09T08:16:15.306Z,96404.50
2022-12-09T08:18:43.957Z,96410.50
2022-12-09T08:21:13.453Z,96404.72
2022-12-09T08:23:42.832Z,96398.38
2022-12-09T08:26:11.436Z,96399.19
2022-12-09T08:28:38.608Z,96402.19
2022-12-09T08:31:11.883Z,96396.19
2022-12-09T08:33:43.271Z,96389.41
2022-12-09T08:36:13.820Z,96392.16
2022-12-09T08:38:41.491Z,96393.28
2022-12-09T08:41:20.737Z,96396.38
2022-12-09T08:43:48.445Z,96389.25
2022-12-09T08:46:17.158Z,96395.44
2022-12-09T08:48:44.190Z,96393.72
2022-12-09T08:51:12.321Z,96399.06
2022-12-09T08:53:39.809Z,96398.06
2022-12-09T08:56:16.369Z,96399.59
2022-12-09T08:58:43.444Z,96397.78
2022-12-09T09:01:21.815Z,96397.72
2022-12-09T09:03:49.922Z,96392.41
2022-12-09T09:06:18.554Z,96400.38
2022-12-09T09:08:54.781Z,96399.06
2022-12-09T09:11:21.585Z,96397.53
2022-12-09T09:13:51.767Z,96398.97
2022-12-09T09:16:21.753Z,96401.88
2022-12-09T09:18:51.571Z,96418.50
2022-12-09T09:21:20.489Z,96407.19
2022-12-09T09:23:49.497Z,96417.06
2022-12-09T09:26:22.089Z,96412.44
2022-12-09T09:28:50.220Z,96410.75
2022-12-09T09:31:25.020Z,96410.09
2022-12-09T09:33:57.403Z,96414.75
2022-12-09T09:36:25.284Z,96404.97
2022-12-09T09:38:54.926Z,96410.72
2022-12-09T09:41:58.766Z,96411.59
2022-12-09T09:44:44.195Z,96403.28
2022-12-09T09:47:36.197Z,96411.44
2022-12-09T09:50:32.168Z,96405.59
2022-12-09T09:53:11.624Z,96403.78
2022-12-09T09:56:01.330Z,96399.84
2022-12-09T09:58:39.042Z,96398.47
2022-12-09T10:01:13.250Z,96400.38
2022-12-09T10:04:09.700Z,96393.84
2022-12-09T10:06:36.729Z,96388.34
2022-12-09T10:09:17.442Z,96383.72
2022-12-09T10:12:03.306Z,96374.69
2022-12-09T10:15:00.087Z,96370.59
2022-12-09T10:17:42.887Z,96375.03
2022-12-09T10:20:18.088Z,96376.25
2022-12-09T10:22:55.876Z,96367.84
2022-12-09T10:25:29.210Z,96365.63
2022-12-09T10:28:01.675Z,96365.16
2022-12-09T10:30:34.190Z,96360.63
2022-12-09T10:33:03.209Z,96356.09
2022-12-09T10:35:31.277Z,96347.66
2022-12-09T10:38:09.127Z,96349.41
2022-12-09T10:40:50.456Z,96338.69
2022-12-09T10:43:39.253Z,96339.34
2022-12-09T10:46:19.952Z,96341.75
2022-12-09T10:48:50.442Z,96342.63
2022-12-09T10:51:24.829Z,96332.69
2022-12-09T10:53:57.732Z,96336.19
2022-12-09T10:56:34.167Z,96329.31
2022-12-09T10:59:18.017Z,96333.53
2022-12-09T11:02:01.885Z,96332.00
2022-12-09T11:04:38.345Z,96328.63
2022-12-09T11:07:41.068Z,96333.19
2022-12-09T11:10:19.993Z,96326.66
2022-12-09T11:12:50.679Z,96333.97
2022-12-09T11:15:43.599Z,96316.44
2022-12-09T11:18:44.598Z,96323.84
2022-12-09T11:21:35.872Z,96321.88
2022-12-09T11:24:04.616Z,96316.88
2022-12-09T11:26:35.839Z,96318.41
2022-12-09T11:29:08.814Z,96315.63
2022-12-09T11:31:40.064Z,96318.00
2022-12-09T11:34:28.133Z,96317.94
2022-12-09T11:36:59.113Z,96318.34
2022-12-09T11:39:30.769Z,96307.34
2022-12-09T11:42:20.848Z,96302.66
2022-12-09T11:45:14.618Z,96305.66
2022-12-09T11:50:36.578Z,96296.13
2022-12-09T11:53:12.120Z,96296.28
2022-12-09T11:56:17.634Z,96299.00
2022-12-09T11:59:05.726Z,96301.66
2022-12-09T12:01:56.443Z,96297.88
2022-12-09T12:04:56.997Z,96304.59
2022-12-09T12:07:42.122Z,96307.34
2022-12-09T12:10:24.657Z,96310.56
2022-12-09T12:13:02.509Z,96311.16
2022-12-09T12:16:01.218Z,96309.06
2022-12-09T12:18:32.849Z,96318.09
2022-12-09T12:21:17.272Z,96313.53
2022-12-09T12:24:03.653Z,96323.59
2022-12-09T12:26:39.844Z,96318.50
2022-12-09T12:29:29.769Z,96321.69
2022-12-09T12:32:18.930Z,96312.69
2022-12-09T12:35:23.307Z,96311.81
2022-12-09T12:38:19.817Z,96319.44
2022-12-09T12:41:10.946Z,96310.03
2022-12-09T12:44:11.970Z,96311.13
2022-12-09T12:47:13.801Z,96307.44
2022-12-09T12:49:55.410Z,96304.78
2022-12-09T12:55:38.860Z,96302.22
2022-12-09T12:58:28.937Z,96313.63
2022-12-09T13:01:04.580Z,96307.44
2022-12-09T13:03:38.914Z,96313.63
2022-12-09T13:06:12.341Z,96323.59
2022-12-09T13:08:46.398Z,96324.00
2022-12-09T13:11:21.399Z,96317.81
2022-12-09T13:14:07.695Z,96323.84
2022-12-09T13:16:42.000Z,96318.50
2022-12-09T13:19:36.220Z,96321.59
2022-12-09T13:22:03.887Z,96317.66
2022-12-09T13:25:00.303Z,96322.44
2022-12-09T13:27:37.437Z,96322.34
2022-12-09T13:30:28.893Z,96329.56
2022-12-09T13:33:16.849Z,96330.59
2022-12-09T13:35:57.109Z,96331.94
2022-12-09T13:38:32.554Z,96334.06
2022-12-09T13:40:59.340Z,96327.22
2022-12-09T13:43:29.202Z,96333.31
2022-12-09T13:45:58.821Z,96328.44
2022-12-09T13:48:25.358Z,96315.91
2022-12-09T13:50:51.793Z,96332.28
2022-12-09T13:53:21.315Z,96333.06
2022-12-09T13:55:56.350Z,96337.69
2022-12-09T13:58:45.388Z,96336.16
2022-12-09T14:01:18.372Z,96342.56
2022-12-09T14:04:12.299Z,96343.69
2022-12-09T14:06:40.778Z,96351.34
2022-12-09T14:09:20.630Z,96346.25
2022-12-09T14:11:52.490Z,96354.22
2022-12-09T14:14:25.286Z,96361.00
2022-12-09T14:16:58.632Z,96358.25
2022-12-09T14:19:25.076Z,96358.94
2022-12-09T14:22:22.410Z,96366.03
2022-12-09T14:24:54.083Z,96368.56
2022-12-09T14:27:22.905Z,96373.88
2022-12-09T14:29:54.110Z,96375.00
2022-12-09T14:32:35.241Z,96374.13
2022-12-09T14:35:21.251Z,96363.50
2022-12-09T14:37:58.538Z,96367.38
2022-12-09T14:40:40.530Z,96368.16
2022-12-09T14:43:25.846Z,96377.91
2022-12-09T14:46:00.260Z,96376.78
2022-12-09T14:48:31.222Z,96375.88
2022-12-09T14:51:20.129Z,96380.09
2022-12-09T14:53:55.079Z,96379.66
2022-12-09T14:56:23.877Z,96380.09
2022-12-09T14:58:55.310Z,96390.28
2022-12-09T15:01:21.967Z,96389.41
2022-12-09T15:04:00.006Z,96386.31
2022-12-09T15:06:27.365Z,96391.53
2022-12-09T15:09:00.214Z,96391.09
2022-12-09T15:11:35.678Z,96389.88
2022-12-09T15:14:26.670Z,96392.09
2022-12-09T15:16:57.190Z,96392.66
2022-12-09T15:19:58.698Z,96394.91
2022-12-09T15:22:33.006Z,96402.41
2022-12-09T15:25:03.107Z,96406.19
2022-12-09T15:27:30.413Z,96403.53
2022-12-09T15:29:58.785Z,96395.22
2022-12-09T15:32:27.070Z,96406.97
2022-12-09T15:34:54.533Z,96402.06
2022-12-09T15:37:30.326Z,96407.84
2022-12-09T15:40:00.364Z,96408.59
2022-12-09T15:42:30.957Z,96419.69
2022-12-09T15:45:06.914Z,96418.22
2022-12-09T15:47:56.719Z,96422.97
2022-12-09T15:50:41.161Z,96422.22
2022-12-09T15:53:23.244Z,96429.84
2022-12-09T15:55:54.832Z,96422.13
2022-12-09T15:58:30.587Z,96427.31
2022-12-09T16:01:01.662Z,96432.22
2022-12-09T16:03:32.532Z,96436.31
2022-12-09T16:06:03.092Z,96433.31
2022-12-09T16:08:43.175Z,96437.84
2022-12-09T16:11:10.664Z,96440.81
2022-12-09T16:13:59.580Z,96444.59
2022-12-09T16:16:33.766Z,96447.25
2022-12-09T16:19:00.456Z,96444.59
2022-12-09T16:21:35.282Z,96447.25
2022-12-09T16:24:11.529Z,96448.38
2022-12-09T16:26:44.677Z,96446.13
2022-12-09T16:29:23.680Z,96453.34
2022-12-09T16:32:17.885Z,96449.59
2022-12-09T16:34:58.502Z,96448.78
2022-12-09T16:37:37.346Z,96451.91
2022-12-09T16:40:45.003Z,96449.59
2022-12-09T16:43:21.466Z,96451.44
2022-12-09T16:45:53.363Z,96447.34
2022-12-09T16:48:21.356Z,96445.03
2022-12-09T16:50:57.527Z,96443.16
2022-12-09T16:53:39.894Z,96443.94
2022-12-09T16:56:08.610Z,96440.94
2022-12-09T16:58:35.377Z,96432.31
2022-12-09T17:01:03.654Z,96436.50
2022-12-09T17:04:13.756Z,96451.56
2022-12-09T17:06:40.299Z,96444.69
2022-12-09T17:09:13.414Z,96446.47
2022-12-09T17:11:45.429Z,96454.44
2022-12-09T17:14:15.263Z,96444.59
2022-12-09T17:16:41.968Z,96454.44
2022-12-09T17:19:08.567Z,96461.09
2022-12-09T17:21:38.457Z,96453.88
2022-12-09T17:24:05.400Z,96454.34
2022-12-09T17:26:31.975Z,96450.81
2022-12-09T17:29:01.868Z,96446.50
2022-12-09T17:31:36.810Z,96449.47
2022-12-09T17:34:03.407Z,96448.59
2022-12-09T17:36:29.887Z,96455.44
2022-12-09T17:39:02.345Z,96450.94
2022-12-09T17:41:28.882Z,96460.09
2022-12-09T17:43:57.800Z,96469.94
2022-12-09T17:46:26.458Z,96476.81
2022-12-09T17:48:52.932Z,96466.94
2022-12-09T17:51:19.482Z,96469.94
2022-12-09T17:53:49.568Z,96479.00
2022-12-09T17:56:19.924Z,96483.56
2022-12-09T17:58:55.877Z,96479.81
2022-12-09T18:01:24.166Z,96479.13
2022-12-09T18:03:56.427Z,96486.63
2022-12-09T18:06:27.745Z,96483.56
2022-12-09T18:08:56.494Z,96486.63
2022-12-09T18:11:23.460Z,96491.94
2022-12-09T18:13:52.465Z,96488.53
2022-12-09T18:16:21.287Z,96496.50
2022-12-09T18:18:47.838Z,96501.03
2022-12-09T18:21:16.357Z,96496.63
2022-12-09T18:23:43.497Z,96495.81
2022-12-09T18:26:13.518Z,96501.94
2022-12-09T18:28:48.789Z,96502.56
2022-12-09T18:31:24.723Z,96506.34
2022-12-09T18:33:56.052Z,96500.72
2022-12-09T18:36:27.853Z,96507.88
2022-12-09T18:39:02.205Z,96512.44
2022-12-09T18:41:30.214Z,96511.00
2022-12-09T18:43:58.903Z,96516.63
2022-12-09T18:46:35.302Z,96518.50
2022-12-09T18:49:03.138Z,96516.97
2022-12-09T18:51:30.209Z,96522.63
2022-12-09T18:53:58.587Z,96514.31
2022-12-09T18:56:25.930Z,96504.13
2022-12-09T18:59:09.328Z,96512.56
2022-12-09T19:01:41.683Z,96513.31
2022-12-09T19:04:15.797Z,96524.28
2022-12-09T19:06:44.925Z,96524.28
2022-12-09T19:09:15.716Z,96536.00
2022-12-09T19:11:50.364Z,96523.50
2022-12-09T19:14:19.218Z,96531.47
2022-12-09T19:16:46.814Z,96526.25
2022-12-09T19:19:17.598Z,96529.91
2022-12-09T19:21:44.632Z,96536.66
2022-12-09T19:24:15.253Z,96538.41
2022-12-09T19:26:42.978Z,96527.78
2022-12-09T19:29:10.572Z,96532.78
2022-12-09T19:31:40.523Z,96538.97
2022-12-09T19:34:18.993Z,96534.44
2022-12-09T19:36:46.754Z,96537.41
2022-12-09T19:39:15.104Z,96537.41
2022-12-09T19:41:44.914Z,96534.13
2022-12-09T19:44:21.659Z,96540.06
2022-12-09T19:46:58.166Z,96547.06
2022-12-09T19:49:27.070Z,96540.53
2022-12-09T19:51:53.684Z,96542.84
2022-12-09T19:54:28.255Z,96532.47
2022-12-09T19:56:56.977Z,96534.03
2022-12-09T19:59:23.652Z,96540.00
2022-12-09T20:01:52.438Z,96538.44
2022-12-09T20:07:08.593Z,96551.25
2022-12-09T20:09:37.661Z,96552.38
2022-12-09T20:12:04.984Z,96560.00
2022-12-09T20:14:33.217Z,96557.34
2022-12-09T20:16:59.863Z,96570.31
2022-12-09T20:19:26.549Z,96568.75
2022-12-09T20:21:53.269Z,96572.50
2022-12-09T20:24:23.409Z,96566.84
2022-12-09T20:26:50.119Z,96565.75
2022-12-09T20:29:18.358Z,96571.41
2022-12-09T20:31:44.926Z,96564.53
2022-12-09T20:34:14.481Z,96566.84
2022-12-09T20:36:45.115Z,96569.63
2022-12-09T20:39:20.129Z,96571.88
2022-12-09T20:41:55.713Z,96573.72
2022-12-09T20:44:22.300Z,96582.50
2022-12-09T20:46:52.618Z,96581.69
2022-12-09T20:49:25.627Z,96582.16
2022-12-09T20:51:52.205Z,96585.13
2022-12-09T20:54:18.786Z,96583.59
2022-12-09T20:56:45.793Z,96578.28
2022-12-09T20:59:13.610Z,96579.81
2022-12-09T21:01:40.547Z,96577.94
2022-12-09T21:04:09.343Z,96575.63
2022-12-09T21:06:39.025Z,96576.03
2022-12-09T21:09:11.676Z,96581.81
2022-12-09T21:11:44.008Z,96579.94
2022-12-09T21:14:11.755Z,96581.81
2022-12-09T21:16:41.683Z,96589.78
2022-12-09T21:19:11.671Z,96587.56
2022-12-09T21:21:40.722Z,96582.72
2022-12-09T21:24:12.729Z,96584.81
2022-12-09T21:26:39.885Z,96588.59
2022-12-09T21:29:07.247Z,96583.59
2022-12-09T21:31:37.396Z,96577.63
2022-12-09T21:34:06.229Z,96580.72
2022-12-09T21:36:36.682Z,96587.38
2022-12-09T21:39:06.535Z,96588.69
2022-12-09T21:41:36.709Z,96588.25
2022-12-09T21:44:04.878Z,96580.72
2022-12-09T21:46:41.765Z,96572.41
2022-12-09T21:49:08.288Z,96564.09
2022-12-09T21:51:35.729Z,96565.09
2022-12-09T21:54:04.753Z,96564.09
2022-12-09T21:56:33.460Z,96563.34
2022-12-09T21:59:00.386Z,96560.25
2022-12-09T22:01:31.428Z,96563.47
2022-12-09T22:03:59.583Z,96563.47
2022-12-09T22:06:28.929Z,96574.53
2022-12-09T22:08:57.519Z,96576.28
2022-12-09T22:11:27.289Z,96569.09
2022-12-09T22:13:58.270Z,96567.22
2022-12-09T22:16:30.077Z,96567.88
2022-12-09T22:18:58.498Z,96555.72
2022-12-09T22:21:28.733Z,96559.59
2022-12-09T22:23:58.738Z,96567.22
2022-12-09T22:26:25.916Z,96575.41
2022-12-09T22:28:53.285Z,96585.25
2022-12-09T22:31:27.528Z,96578.72
2022-12-09T22:33:59.184Z,96587.78
2022-12-09T22:36:26.070Z,96580.63
2022-12-09T22:38:53.880Z,96585.94
2022-12-09T22:41:22.815Z,96581.38
2022-12-09T22:43:50.584Z,96578.38
2022-12-09T22:46:24.957Z,96581.81
2022-12-09T22:48:51.907Z,96592.44
2022-12-09T22:51:21.982Z,96588.25
2022-12-09T22:53:50.066Z,96596.22
2022-12-09T22:56:17.460Z,96595.75
2022-12-09T22:58:50.155Z,96592.66
2022-12-09T23:01:21.988Z,96599.84
2022-12-09T23:03:48.586Z,96599.53
2022-12-09T23:06:15.603Z,96590.00
2022-12-09T23:08:45.142Z,96588.91
2022-12-09T23:11:17.546Z,96584.81
2022-12-09T23:13:44.373Z,96580.94
2022-12-09T23:16:17.866Z,96581.72
2022-12-09T23:18:44.590Z,96573.09
2022-12-09T23:21:27.551Z,96569.00
2022-12-09T23:24:02.521Z,96576.97
2022-12-09T23:26:34.139Z,96566.22
2022-12-09T23:29:01.808Z,96565.00
2022-12-09T23:31:31.124Z,96557.28
2022-12-09T23:34:00.286Z,96560.34
2022-12-09T23:36:33.316Z,96550.41
2022-12-09T23:39:03.251Z,96562.13
2022-12-09T23:41:30.417Z,96569.66
2022-12-09T23:43:57.323Z,96573.75
2022-12-09T23:46:28.595Z,96579.38
2022-12-09T23:48:56.492Z,96578.28
2022-12-09T23:51:26.100Z,96588.91
2022-12-09T23:53:55.544Z,96595.31
2022-12-09T23:56:25.082Z,96585.03
2022-12-09T23:58:56.595Z,96589.56
